sensor_id;sensor_type;location;lat;lon;timestamp;temperature;humidity
54429;DHT22;40337;52.978;6.310;2023-03-03T00:02:18;3.10;99.90
54429;DHT22;40337;52.978;6.310;2023-03-03T00:04:43;3.10;99.90
54429;DHT22;40337;52.978;6.310;2023-03-03T00:07:10;3.10;99.90
54429;DHT22;40337;52.978;6.310;2023-03-03T00:09:35;3.10;99.90
54429;DHT22;40337;52.978;6.310;2023-03-03T00:12:27;3.10;99.90
54429;DHT22;40337;52.978;6.310;2023-03-03T00:14:53;3.20;99.90
54429;DHT22;40337;52.978;6.310;2023-03-03T00:17:29;3.20;99.90
54429;DHT22;40337;52.978;6.310;2023-03-03T00:19:56;3.20;99.90
54429;DHT22;40337;52.978;6.310;2023-03-03T00:22:28;3.20;99.90
54429;DHT22;40337;52.978;6.310;2023-03-03T00:24:57;3.30;99.90
54429;DHT22;40337;52.978;6.310;2023-03-03T00:27:33;3.30;99.90
54429;DHT22;40337;52.978;6.310;2023-03-03T00:30:00;3.30;99.90
54429;DHT22;40337;52.978;6.310;2023-03-03T00:35:16;3.30;99.90
54429;DHT22;40337;52.978;6.310;2023-03-03T00:37:43;3.30;99.90
54429;DHT22;40337;52.978;6.310;2023-03-03T00:40:18;3.30;99.90
54429;DHT22;40337;52.978;6.310;2023-03-03T00:42:49;3.30;99.90
54429;DHT22;40337;52.978;6.310;2023-03-03T00:47:51;3.30;99.90
54429;DHT22;40337;52.978;6.310;2023-03-03T00:50:28;3.30;99.90
54429;DHT22;40337;52.978;6.310;2023-03-03T00:53:01;3.30;99.90
54429;DHT22;40337;52.978;6.310;2023-03-03T00:55:27;3.30;99.90
54429;DHT22;40337;52.978;6.310;2023-03-03T00:57:53;3.30;99.90
54429;DHT22;40337;52.978;6.310;2023-03-03T01:00:19;3.30;99.90
54429;DHT22;40337;52.978;6.310;2023-03-03T01:02:44;3.30;99.90
54429;DHT22;40337;52.978;6.310;2023-03-03T01:05:13;3.30;99.90
54429;DHT22;40337;52.978;6.310;2023-03-03T01:07:39;3.30;99.90
54429;DHT22;40337;52.978;6.310;2023-03-03T01:10:06;3.20;99.90
54429;DHT22;40337;52.978;6.310;2023-03-03T01:12:32;3.20;99.90
54429;DHT22;40337;52.978;6.310;2023-03-03T01:14:57;3.30;99.90
54429;DHT22;40337;52.978;6.310;2023-03-03T01:17:23;3.30;99.90
54429;DHT22;40337;52.978;6.310;2023-03-03T01:19:49;3.30;99.90
54429;DHT22;40337;52.978;6.310;2023-03-03T01:22:14;3.30;99.90
54429;DHT22;40337;52.978;6.310;2023-03-03T01:24:40;3.30;99.90
54429;DHT22;40337;52.978;6.310;2023-03-03T01:27:05;3.30;99.90
54429;DHT22;40337;52.978;6.310;2023-03-03T01:29:31;3.30;99.90
54429;DHT22;40337;52.978;6.310;2023-03-03T01:31:56;3.30;99.90
54429;DHT22;40337;52.978;6.310;2023-03-03T01:34:22;3.30;99.90
54429;DHT22;40337;52.978;6.310;2023-03-03T01:36:48;3.30;99.90
54429;DHT22;40337;52.978;6.310;2023-03-03T01:39:14;3.30;99.90
54429;DHT22;40337;52.978;6.310;2023-03-03T01:41:39;3.30;99.90
54429;DHT22;40337;52.978;6.310;2023-03-03T01:44:05;3.30;99.90
54429;DHT22;40337;52.978;6.310;2023-03-03T01:46:51;3.20;99.90
54429;DHT22;40337;52.978;6.310;2023-03-03T01:49:24;3.30;99.90
54429;DHT22;40337;52.978;6.310;2023-03-03T01:51:57;3.30;99.90
54429;DHT22;40337;52.978;6.310;2023-03-03T01:54:30;3.20;99.90
54429;DHT22;40337;52.978;6.310;2023-03-03T01:57:01;3.20;99.90
54429;DHT22;40337;52.978;6.310;2023-03-03T01:59:35;3.20;99.90
54429;DHT22;40337;52.978;6.310;2023-03-03T02:02:03;3.20;99.90
54429;DHT22;40337;52.978;6.310;2023-03-03T02:04:29;3.20;99.90
54429;DHT22;40337;52.978;6.310;2023-03-03T02:07:04;3.20;99.90
54429;DHT22;40337;52.978;6.310;2023-03-03T02:09:38;3.10;99.90
54429;DHT22;40337;52.978;6.310;2023-03-03T02:12:08;3.10;99.90
54429;DHT22;40337;52.978;6.310;2023-03-03T02:14:35;3.10;99.90
54429;DHT22;40337;52.978;6.310;2023-03-03T02:17:01;3.00;99.90
54429;DHT22;40337;52.978;6.310;2023-03-03T02:19:51;3.10;99.90
54429;DHT22;40337;52.978;6.310;2023-03-03T02:22:22;3.10;99.90
54429;DHT22;40337;52.978;6.310;2023-03-03T02:24:56;3.00;99.90
54429;DHT22;40337;52.978;6.310;2023-03-03T02:27:25;3.10;99.90
54429;DHT22;40337;52.978;6.310;2023-03-03T02:29:51;3.10;99.90
54429;DHT22;40337;52.978;6.310;2023-03-03T02:32:17;3.00;99.90
54429;DHT22;40337;52.978;6.310;2023-03-03T02:34:50;3.10;99.90
54429;DHT22;40337;52.978;6.310;2023-03-03T02:37:17;3.10;99.90
54429;DHT22;40337;52.978;6.310;2023-03-03T02:39:43;3.10;99.90
54429;DHT22;40337;52.978;6.310;2023-03-03T02:42:21;3.10;99.90
54429;DHT22;40337;52.978;6.310;2023-03-03T02:44:49;3.10;99.90
54429;DHT22;40337;52.978;6.310;2023-03-03T02:47:14;3.10;99.90
54429;DHT22;40337;52.978;6.310;2023-03-03T02:49:40;3.10;99.90
54429;DHT22;40337;52.978;6.310;2023-03-03T02:52:08;3.10;99.90
54429;DHT22;40337;52.978;6.310;2023-03-03T02:54:35;3.00;99.90
54429;DHT22;40337;52.978;6.310;2023-03-03T02:57:01;3.00;99.90
54429;DHT22;40337;52.978;6.310;2023-03-03T02:59:27;3.00;99.90
54429;DHT22;40337;52.978;6.310;2023-03-03T03:01:53;2.90;99.90
54429;DHT22;40337;52.978;6.310;2023-03-03T03:04:21;2.90;99.90
54429;DHT22;40337;52.978;6.310;2023-03-03T03:06:47;2.90;99.90
54429;DHT22;40337;52.978;6.310;2023-03-03T03:09:13;2.80;99.90
54429;DHT22;40337;52.978;6.310;2023-03-03T03:11:38;2.80;99.90
54429;DHT22;40337;52.978;6.310;2023-03-03T03:14:06;2.80;99.90
54429;DHT22;40337;52.978;6.310;2023-03-03T03:16:32;2.70;99.90
54429;DHT22;40337;52.978;6.310;2023-03-03T03:18:59;2.70;99.90
54429;DHT22;40337;52.978;6.310;2023-03-03T03:21:24;2.70;99.90
54429;DHT22;40337;52.978;6.310;2023-03-03T03:23:50;2.60;99.90
54429;DHT22;40337;52.978;6.310;2023-03-03T03:26:16;2.50;99.90
54429;DHT22;40337;52.978;6.310;2023-03-03T03:28:41;2.50;99.90
54429;DHT22;40337;52.978;6.310;2023-03-03T03:31:08;2.40;99.90
54429;DHT22;40337;52.978;6.310;2023-03-03T03:33:34;2.40;99.90
54429;DHT22;40337;52.978;6.310;2023-03-03T03:36:01;2.40;99.90
54429;DHT22;40337;52.978;6.310;2023-03-03T03:38:27;2.30;99.90
54429;DHT22;40337;52.978;6.310;2023-03-03T03:40:54;2.30;99.90
54429;DHT22;40337;52.978;6.310;2023-03-03T03:43:19;2.30;99.90
54429;DHT22;40337;52.978;6.310;2023-03-03T03:45:45;2.30;99.90
54429;DHT22;40337;52.978;6.310;2023-03-03T03:48:11;2.30;99.90
54429;DHT22;40337;52.978;6.310;2023-03-03T03:50:37;2.30;99.90
54429;DHT22;40337;52.978;6.310;2023-03-03T03:53:03;2.20;99.90
54429;DHT22;40337;52.978;6.310;2023-03-03T03:55:29;2.20;99.90
54429;DHT22;40337;52.978;6.310;2023-03-03T03:57:55;2.20;99.90
54429;DHT22;40337;52.978;6.310;2023-03-03T04:00:21;2.10;99.90
54429;DHT22;40337;52.978;6.310;2023-03-03T04:02:47;2.10;99.90
54429;DHT22;40337;52.978;6.310;2023-03-03T04:05:13;2.10;99.90
54429;DHT22;40337;52.978;6.310;2023-03-03T04:07:38;2.10;99.90
54429;DHT22;40337;52.978;6.310;2023-03-03T04:10:04;2.10;99.90
54429;DHT22;40337;52.978;6.310;2023-03-03T04:12:30;2.10;99.90
54429;DHT22;40337;52.978;6.310;2023-03-03T04:15:04;2.10;99.90
54429;DHT22;40337;52.978;6.310;2023-03-03T04:17:30;2.10;99.90
54429;DHT22;40337;52.978;6.310;2023-03-03T04:19:55;2.00;99.90
54429;DHT22;40337;52.978;6.310;2023-03-03T04:22:21;1.90;99.90
54429;DHT22;40337;52.978;6.310;2023-03-03T04:24:47;1.90;99.90
54429;DHT22;40337;52.978;6.310;2023-03-03T04:27:13;1.80;99.90
54429;DHT22;40337;52.978;6.310;2023-03-03T04:29:40;1.90;99.90
54429;DHT22;40337;52.978;6.310;2023-03-03T04:32:05;1.70;99.90
54429;DHT22;40337;52.978;6.310;2023-03-03T04:34:31;1.80;99.90
54429;DHT22;40337;52.978;6.310;2023-03-03T04:36:57;1.70;99.90
54429;DHT22;40337;52.978;6.310;2023-03-03T04:39:22;1.60;99.90
54429;DHT22;40337;52.978;6.310;2023-03-03T04:41:48;1.60;99.90
54429;DHT22;40337;52.978;6.310;2023-03-03T04:44:13;1.50;99.90
54429;DHT22;40337;52.978;6.310;2023-03-03T04:46:39;1.50;99.90
54429;DHT22;40337;52.978;6.310;2023-03-03T04:49:04;1.40;99.90
54429;DHT22;40337;52.978;6.310;2023-03-03T04:51:33;1.40;99.90
54429;DHT22;40337;52.978;6.310;2023-03-03T04:53:58;1.30;99.90
54429;DHT22;40337;52.978;6.310;2023-03-03T04:56:24;1.30;99.90
54429;DHT22;40337;52.978;6.310;2023-03-03T04:58:49;1.30;99.90
54429;DHT22;40337;52.978;6.310;2023-03-03T05:01:15;1.30;99.90
54429;DHT22;40337;52.978;6.310;2023-03-03T05:03:41;1.20;99.90
54429;DHT22;40337;52.978;6.310;2023-03-03T05:06:06;1.10;99.90
54429;DHT22;40337;52.978;6.310;2023-03-03T05:08:32;1.10;99.90
54429;DHT22;40337;52.978;6.310;2023-03-03T05:10:58;1.10;99.90
54429;DHT22;40337;52.978;6.310;2023-03-03T05:13:27;1.10;99.90
54429;DHT22;40337;52.978;6.310;2023-03-03T05:15:54;1.10;99.90
54429;DHT22;40337;52.978;6.310;2023-03-03T05:18:21;1.10;99.90
54429;DHT22;40337;52.978;6.310;2023-03-03T05:20:47;1.00;99.90
54429;DHT22;40337;52.978;6.310;2023-03-03T05:23:12;1.00;99.90
54429;DHT22;40337;52.978;6.310;2023-03-03T05:25:42;0.90;99.90
54429;DHT22;40337;52.978;6.310;2023-03-03T05:28:09;0.90;99.90
54429;DHT22;40337;52.978;6.310;2023-03-03T05:30:36;0.90;99.90
54429;DHT22;40337;52.978;6.310;2023-03-03T05:33:02;0.80;99.90
54429;DHT22;40337;52.978;6.310;2023-03-03T05:35:28;0.80;99.90
54429;DHT22;40337;52.978;6.310;2023-03-03T05:37:54;0.80;99.90
54429;DHT22;40337;52.978;6.310;2023-03-03T05:40:20;0.70;99.90
54429;DHT22;40337;52.978;6.310;2023-03-03T05:42:45;0.70;99.90
54429;DHT22;40337;52.978;6.310;2023-03-03T05:45:11;0.60;99.90
54429;DHT22;40337;52.978;6.310;2023-03-03T05:47:37;0.60;99.90
54429;DHT22;40337;52.978;6.310;2023-03-03T05:50:03;0.50;99.90
54429;DHT22;40337;52.978;6.310;2023-03-03T05:52:29;0.50;99.90
54429;DHT22;40337;52.978;6.310;2023-03-03T05:54:55;0.50;99.90
54429;DHT22;40337;52.978;6.310;2023-03-03T05:57:20;0.40;99.90
54429;DHT22;40337;52.978;6.310;2023-03-03T05:59:46;0.50;99.90
54429;DHT22;40337;52.978;6.310;2023-03-03T06:02:11;0.40;99.90
54429;DHT22;40337;52.978;6.310;2023-03-03T06:04:37;0.30;99.90
54429;DHT22;40337;52.978;6.310;2023-03-03T06:07:02;0.30;99.90
54429;DHT22;40337;52.978;6.310;2023-03-03T06:09:28;0.30;99.90
54429;DHT22;40337;52.978;6.310;2023-03-03T06:11:53;0.20;99.90
54429;DHT22;40337;52.978;6.310;2023-03-03T06:14:20;0.20;99.90
54429;DHT22;40337;52.978;6.310;2023-03-03T06:16:46;0.10;99.90
54429;DHT22;40337;52.978;6.310;2023-03-03T06:19:12;0.10;99.90
54429;DHT22;40337;52.978;6.310;2023-03-03T06:21:38;0.10;99.90
54429;DHT22;40337;52.978;6.310;2023-03-03T06:24:04;0.10;99.90
54429;DHT22;40337;52.978;6.310;2023-03-03T06:26:31;0.00;99.90
54429;DHT22;40337;52.978;6.310;2023-03-03T06:28:56;0.10;99.90
54429;DHT22;40337;52.978;6.310;2023-03-03T06:31:22;0.00;99.90
54429;DHT22;40337;52.978;6.310;2023-03-03T06:33:47;0.00;99.90
54429;DHT22;40337;52.978;6.310;2023-03-03T06:36:13;0.00;99.90
54429;DHT22;40337;52.978;6.310;2023-03-03T06:38:39;0.10;99.90
54429;DHT22;40337;52.978;6.310;2023-03-03T06:41:04;0.00;99.90
54429;DHT22;40337;52.978;6.310;2023-03-03T06:43:33;0.00;99.90
54429;DHT22;40337;52.978;6.310;2023-03-03T06:45:58;-0.10;99.90
54429;DHT22;40337;52.978;6.310;2023-03-03T06:48:24;0.00;99.90
54429;DHT22;40337;52.978;6.310;2023-03-03T06:50:49;0.00;99.90
54429;DHT22;40337;52.978;6.310;2023-03-03T06:53:17;0.00;99.90
54429;DHT22;40337;52.978;6.310;2023-03-03T06:55:43;0.00;99.90
54429;DHT22;40337;52.978;6.310;2023-03-03T06:58:14;-0.10;99.90
54429;DHT22;40337;52.978;6.310;2023-03-03T07:00:42;0.00;99.90
54429;DHT22;40337;52.978;6.310;2023-03-03T07:03:17;0.00;99.90
54429;DHT22;40337;52.978;6.310;2023-03-03T07:05:43;0.00;99.90
54429;DHT22;40337;52.978;6.310;2023-03-03T07:08:14;0.00;99.90
54429;DHT22;40337;52.978;6.310;2023-03-03T07:10:40;0.00;99.90
54429;DHT22;40337;52.978;6.310;2023-03-03T07:15:42;0.00;99.90
54429;DHT22;40337;52.978;6.310;2023-03-03T07:23:39;0.10;99.90
54429;DHT22;40337;52.978;6.310;2023-03-03T07:26:11;0.10;99.90
54429;DHT22;40337;52.978;6.310;2023-03-03T07:28:39;0.10;99.90
54429;DHT22;40337;52.978;6.310;2023-03-03T07:31:35;0.20;99.90
54429;DHT22;40337;52.978;6.310;2023-03-03T07:34:12;0.30;99.90
54429;DHT22;40337;52.978;6.310;2023-03-03T07:36:40;0.30;99.90
54429;DHT22;40337;52.978;6.310;2023-03-03T07:39:29;0.30;99.90
54429;DHT22;40337;52.978;6.310;2023-03-03T07:42:23;0.40;99.90
54429;DHT22;40337;52.978;6.310;2023-03-03T07:44:56;0.40;99.90
54429;DHT22;40337;52.978;6.310;2023-03-03T07:47:26;0.40;99.90
54429;DHT22;40337;52.978;6.310;2023-03-03T07:49:59;0.50;99.90
54429;DHT22;40337;52.978;6.310;2023-03-03T07:52:30;0.60;99.90
54429;DHT22;40337;52.978;6.310;2023-03-03T07:54:58;0.70;99.90
54429;DHT22;40337;52.978;6.310;2023-03-03T07:57:42;0.70;99.90
54429;DHT22;40337;52.978;6.310;2023-03-03T08:03:11;0.90;99.90
54429;DHT22;40337;52.978;6.310;2023-03-03T08:05:41;1.00;99.90
54429;DHT22;40337;52.978;6.310;2023-03-03T08:08:14;1.10;99.90
54429;DHT22;40337;52.978;6.310;2023-03-03T08:13:21;1.10;99.90
54429;DHT22;40337;52.978;6.310;2023-03-03T08:15:53;1.10;99.90
54429;DHT22;40337;52.978;6.310;2023-03-03T08:18:27;1.20;99.90
54429;DHT22;40337;52.978;6.310;2023-03-03T08:21:00;1.20;99.90
54429;DHT22;40337;52.978;6.310;2023-03-03T08:23:26;1.20;99.90
54429;DHT22;40337;52.978;6.310;2023-03-03T08:25:52;1.30;99.90
54429;DHT22;40337;52.978;6.310;2023-03-03T08:28:19;1.30;99.90
54429;DHT22;40337;52.978;6.310;2023-03-03T08:30:45;1.50;99.90
54429;DHT22;40337;52.978;6.310;2023-03-03T08:33:11;1.60;99.90
54429;DHT22;40337;52.978;6.310;2023-03-03T08:35:37;1.70;99.90
54429;DHT22;40337;52.978;6.310;2023-03-03T08:38:04;1.70;99.90
54429;DHT22;40337;52.978;6.310;2023-03-03T08:40:30;1.70;99.90
54429;DHT22;40337;52.978;6.310;2023-03-03T08:42:56;1.80;99.90
54429;DHT22;40337;52.978;6.310;2023-03-03T08:45:23;1.80;99.90
54429;DHT22;40337;52.978;6.310;2023-03-03T08:47:49;1.90;99.90
54429;DHT22;40337;52.978;6.310;2023-03-03T08:50:23;2.00;99.90
54429;DHT22;40337;52.978;6.310;2023-03-03T08:52:49;2.10;99.90
54429;DHT22;40337;52.978;6.310;2023-03-03T08:55:15;2.10;99.90
54429;DHT22;40337;52.978;6.310;2023-03-03T08:57:40;2.20;99.90
54429;DHT22;40337;52.978;6.310;2023-03-03T09:00:10;2.20;99.90
54429;DHT22;40337;52.978;6.310;2023-03-03T09:02:36;2.30;99.90
54429;DHT22;40337;52.978;6.310;2023-03-03T09:05:02;2.40;99.90
54429;DHT22;40337;52.978;6.310;2023-03-03T09:07:28;2.40;99.90
54429;DHT22;40337;52.978;6.310;2023-03-03T09:09:53;2.40;99.90
54429;DHT22;40337;52.978;6.310;2023-03-03T09:12:27;2.50;99.90
54429;DHT22;40337;52.978;6.310;2023-03-03T09:14:56;2.50;99.90
54429;DHT22;40337;52.978;6.310;2023-03-03T09:17:31;2.60;99.90
54429;DHT22;40337;52.978;6.310;2023-03-03T09:20:03;2.60;99.90
54429;DHT22;40337;52.978;6.310;2023-03-03T09:22:35;2.70;99.90
54429;DHT22;40337;52.978;6.310;2023-03-03T09:25:02;2.80;99.90
54429;DHT22;40337;52.978;6.310;2023-03-03T09:27:38;2.80;99.90
54429;DHT22;40337;52.978;6.310;2023-03-03T09:32:50;3.00;99.90
54429;DHT22;40337;52.978;6.310;2023-03-03T09:35:37;3.10;99.90
54429;DHT22;40337;52.978;6.310;2023-03-03T09:38:32;3.20;99.90
54429;DHT22;40337;52.978;6.310;2023-03-03T09:41:35;3.30;99.90
54429;DHT22;40337;52.978;6.310;2023-03-03T09:46:44;3.50;99.90
54429;DHT22;40337;52.978;6.310;2023-03-03T09:49:27;3.60;99.90
54429;DHT22;40337;52.978;6.310;2023-03-03T10:00:34;4.10;99.90
54429;DHT22;40337;52.978;6.310;2023-03-03T10:06:25;4.60;99.90
54429;DHT22;40337;52.978;6.310;2023-03-03T10:08:56;4.80;99.90
54429;DHT22;40337;52.978;6.310;2023-03-03T10:11:46;5.10;99.90
54429;DHT22;40337;52.978;6.310;2023-03-03T10:14:32;5.70;99.90
54429;DHT22;40337;52.978;6.310;2023-03-03T10:17:23;6.30;99.90
54429;DHT22;40337;52.978;6.310;2023-03-03T10:20:17;6.90;99.90
54429;DHT22;40337;52.978;6.310;2023-03-03T10:23:02;8.00;99.90
54429;DHT22;40337;52.978;6.310;2023-03-03T10:25:45;8.80;99.90
54429;DHT22;40337;52.978;6.310;2023-03-03T10:45:06;11.10;99.90
54429;DHT22;40337;52.978;6.310;2023-03-03T10:53:49;11.90;99.90
54429;DHT22;40337;52.978;6.310;2023-03-03T11:02:11;9.90;99.90
54429;DHT22;40337;52.978;6.310;2023-03-03T11:07:36;8.90;99.90
54429;DHT22;40337;52.978;6.310;2023-03-03T11:13:00;8.30;99.90
54429;DHT22;40337;52.978;6.310;2023-03-03T11:16:05;8.20;99.90
54429;DHT22;40337;52.978;6.310;2023-03-03T11:19:00;8.10;99.90
54429;DHT22;40337;52.978;6.310;2023-03-03T11:30:02;7.90;99.90
54429;DHT22;40337;52.978;6.310;2023-03-03T11:33:00;7.90;99.90
54429;DHT22;40337;52.978;6.310;2023-03-03T11:44:15;8.00;99.90
54429;DHT22;40337;52.978;6.310;2023-03-03T11:49:23;8.10;99.90
54429;DHT22;40337;52.978;6.310;2023-03-03T11:57:57;11.10;99.90
54429;DHT22;40337;52.978;6.310;2023-03-03T12:03:33;10.60;99.90
54429;DHT22;40337;52.978;6.310;2023-03-03T12:11:26;8.90;99.90
54429;DHT22;40337;52.978;6.310;2023-03-03T12:16:55;8.80;99.90
54429;DHT22;40337;52.978;6.310;2023-03-03T12:19:30;8.90;99.90
54429;DHT22;40337;52.978;6.310;2023-03-03T12:22:28;9.60;99.90
54429;DHT22;40337;52.978;6.310;2023-03-03T12:37:17;11.10;99.90
54429;DHT22;40337;52.978;6.310;2023-03-03T12:39:41;11.90;99.90
54429;DHT22;40337;52.978;6.310;2023-03-03T12:42:55;12.40;99.90
54429;DHT22;40337;52.978;6.310;2023-03-03T12:45:55;12.60;98.70
54429;DHT22;40337;52.978;6.310;2023-03-03T12:48:46;12.60;98.30
54429;DHT22;40337;52.978;6.310;2023-03-03T12:56:39;11.10;99.90
54429;DHT22;40337;52.978;6.310;2023-03-03T13:02:32;10.20;99.90
54429;DHT22;40337;52.978;6.310;2023-03-03T13:08:17;9.80;99.90
54429;DHT22;40337;52.978;6.310;2023-03-03T13:13:29;9.70;99.90
54429;DHT22;40337;52.978;6.310;2023-03-03T13:16:11;9.50;99.90
54429;DHT22;40337;52.978;6.310;2023-03-03T13:18:58;10.00;99.90
54429;DHT22;40337;52.978;6.310;2023-03-03T13:21:50;10.50;99.90
54429;DHT22;40337;52.978;6.310;2023-03-03T13:24:32;10.50;99.90
54429;DHT22;40337;52.978;6.310;2023-03-03T13:27:06;10.30;99.90
54429;DHT22;40337;52.978;6.310;2023-03-03T13:29:58;10.10;99.90
54429;DHT22;40337;52.978;6.310;2023-03-03T13:32:37;10.00;99.90
54429;DHT22;40337;52.978;6.310;2023-03-03T13:37:55;10.30;99.90
54429;DHT22;40337;52.978;6.310;2023-03-03T13:40:44;10.80;99.90
54429;DHT22;40337;52.978;6.310;2023-03-03T13:43:28;11.20;99.90
54429;DHT22;40337;52.978;6.310;2023-03-03T13:46:17;11.50;99.90
54429;DHT22;40337;52.978;6.310;2023-03-03T13:51:52;11.80;99.90
54429;DHT22;40337;52.978;6.310;2023-03-03T13:57:33;11.10;99.90
54429;DHT22;40337;52.978;6.310;2023-03-03T14:00:18;10.90;99.90
54429;DHT22;40337;52.978;6.310;2023-03-03T14:08:25;10.30;99.90
54429;DHT22;40337;52.978;6.310;2023-03-03T14:11:35;10.10;99.90
54429;DHT22;40337;52.978;6.310;2023-03-03T14:19:33;9.70;99.90
54429;DHT22;40337;52.978;6.310;2023-03-03T14:22:15;9.40;99.90
54429;DHT22;40337;52.978;6.310;2023-03-03T14:27:25;9.40;99.90
54429;DHT22;40337;52.978;6.310;2023-03-03T14:29:51;9.70;99.90
54429;DHT22;40337;52.978;6.310;2023-03-03T14:32:23;9.90;99.90
54429;DHT22;40337;52.978;6.310;2023-03-03T14:35:00;10.20;99.90
54429;DHT22;40337;52.978;6.310;2023-03-03T14:37:47;10.20;99.90
54429;DHT22;40337;52.978;6.310;2023-03-03T14:40:21;10.10;99.90
54429;DHT22;40337;52.978;6.310;2023-03-03T14:42:55;10.00;99.90
54429;DHT22;40337;52.978;6.310;2023-03-03T14:45:37;9.80;99.90
54429;DHT22;40337;52.978;6.310;2023-03-03T14:48:21;9.70;99.90
54429;DHT22;40337;52.978;6.310;2023-03-03T14:50:59;9.50;99.90
54429;DHT22;40337;52.978;6.310;2023-03-03T14:53:44;9.40;99.90
54429;DHT22;40337;52.978;6.310;2023-03-03T14:56:33;9.20;99.90
54429;DHT22;40337;52.978;6.310;2023-03-03T14:59:19;9.10;99.90
54429;DHT22;40337;52.978;6.310;2023-03-03T15:01:45;9.00;99.90
54429;DHT22;40337;52.978;6.310;2023-03-03T15:06:45;8.80;99.90
54429;DHT22;40337;52.978;6.310;2023-03-03T15:09:31;8.70;99.90
54429;DHT22;40337;52.978;6.310;2023-03-03T15:12:24;8.60;99.90
54429;DHT22;40337;52.978;6.310;2023-03-03T15:15:37;8.50;99.90
54429;DHT22;40337;52.978;6.310;2023-03-03T15:17:53;8.30;99.90
54429;DHT22;40337;52.978;6.310;2023-03-03T15:20:34;8.20;99.90
54429;DHT22;40337;52.978;6.310;2023-03-03T15:31:09;8.10;99.90
54429;DHT22;40337;52.978;6.310;2023-03-03T15:34:06;8.10;99.90
54429;DHT22;40337;52.978;6.310;2023-03-03T15:42:14;8.00;99.90
54429;DHT22;40337;52.978;6.310;2023-03-03T15:45:06;7.90;99.90
54429;DHT22;40337;52.978;6.310;2023-03-03T16:06:46;7.80;99.90
54429;DHT22;40337;52.978;6.310;2023-03-03T16:09:31;7.70;99.90
54429;DHT22;40337;52.978;6.310;2023-03-03T16:17:45;7.60;99.90
54429;DHT22;40337;52.978;6.310;2023-03-03T16:20:37;7.60;99.90
54429;DHT22;40337;52.978;6.310;2023-03-03T16:23:38;7.60;99.90
54429;DHT22;40337;52.978;6.310;2023-03-03T16:26:12;7.50;99.90
54429;DHT22;40337;52.978;6.310;2023-03-03T16:31:24;7.40;99.90
54429;DHT22;40337;52.978;6.310;2023-03-03T16:33:59;7.40;99.90
54429;DHT22;40337;52.978;6.310;2023-03-03T16:39:20;7.40;99.90
54429;DHT22;40337;52.978;6.310;2023-03-03T16:53:43;7.30;99.90
54429;DHT22;40337;52.978;6.310;2023-03-03T16:59:25;7.30;99.90
54429;DHT22;40337;52.978;6.310;2023-03-03T17:02:09;7.30;99.90
54429;DHT22;40337;52.978;6.310;2023-03-03T17:04:57;7.30;99.90
54429;DHT22;40337;52.978;6.310;2023-03-03T17:07:50;7.20;99.90
54429;DHT22;40337;52.978;6.310;2023-03-03T17:10:31;7.20;99.90
54429;DHT22;40337;52.978;6.310;2023-03-03T17:13:14;7.20;99.90
54429;DHT22;40337;52.978;6.310;2023-03-03T17:18:37;7.20;99.90
54429;DHT22;40337;52.978;6.310;2023-03-03T17:21:15;7.10;99.90
54429;DHT22;40337;52.978;6.310;2023-03-03T17:23:47;7.10;99.90
54429;DHT22;40337;52.978;6.310;2023-03-03T17:26:41;7.10;99.90
54429;DHT22;40337;52.978;6.310;2023-03-03T17:43:33;6.90;99.90
54429;DHT22;40337;52.978;6.310;2023-03-03T17:46:08;6.90;99.90
54429;DHT22;40337;52.978;6.310;2023-03-03T17:48:57;6.90;99.90
54429;DHT22;40337;52.978;6.310;2023-03-03T17:52:03;6.90;99.90
54429;DHT22;40337;52.978;6.310;2023-03-03T18:10:52;6.90;99.90
54429;DHT22;40337;52.978;6.310;2023-03-03T18:19:14;6.90;99.90
54429;DHT22;40337;52.978;6.310;2023-03-03T18:29:37;6.80;99.90
54429;DHT22;40337;52.978;6.310;2023-03-03T18:32:25;6.80;99.90
54429;DHT22;40337;52.978;6.310;2023-03-03T18:37:54;6.80;99.90
54429;DHT22;40337;52.978;6.310;2023-03-03T18:42:48;6.80;99.90
54429;DHT22;40337;52.978;6.310;2023-03-03T18:48:04;6.80;99.90
54429;DHT22;40337;52.978;6.310;2023-03-03T18:50:37;6.80;99.90
54429;DHT22;40337;52.978;6.310;2023-03-03T18:55:39;6.80;99.90
54429;DHT22;40337;52.978;6.310;2023-03-03T19:01:43;6.80;99.90
54429;DHT22;40337;52.978;6.310;2023-03-03T19:09:05;6.80;99.90
54429;DHT22;40337;52.978;6.310;2023-03-03T19:11:54;6.80;99.90
54429;DHT22;40337;52.978;6.310;2023-03-03T19:16:58;6.80;99.90
54429;DHT22;40337;52.978;6.310;2023-03-03T19:19:28;6.80;99.90
54429;DHT22;40337;52.978;6.310;2023-03-03T19:22:24;6.70;99.90
54429;DHT22;40337;52.978;6.310;2023-03-03T19:31:01;6.70;99.90
54429;DHT22;40337;52.978;6.310;2023-03-03T19:33:52;6.70;99.90
54429;DHT22;40337;52.978;6.310;2023-03-03T19:39:17;6.60;99.90
54429;DHT22;40337;52.978;6.310;2023-03-03T19:41:59;6.60;99.90
54429;DHT22;40337;52.978;6.310;2023-03-03T19:47:27;6.60;99.90
54429;DHT22;40337;52.978;6.310;2023-03-03T19:50:11;6.60;99.90
54429;DHT22;40337;52.978;6.310;2023-03-03T20:01:40;6.60;99.90
54429;DHT22;40337;52.978;6.310;2023-03-03T20:12:12;6.50;99.90
54429;DHT22;40337;52.978;6.310;2023-03-03T20:14:46;6.50;99.90
54429;DHT22;40337;52.978;6.310;2023-03-03T20:20:02;6.50;99.90
54429;DHT22;40337;52.978;6.310;2023-03-03T20:22:51;6.50;99.90
54429;DHT22;40337;52.978;6.310;2023-03-03T20:25:41;6.50;99.90
54429;DHT22;40337;52.978;6.310;2023-03-03T20:28:46;6.50;99.90
54429;DHT22;40337;52.978;6.310;2023-03-03T20:37:24;6.50;99.90
54429;DHT22;40337;52.978;6.310;2023-03-03T20:40:25;6.50;99.90
54429;DHT22;40337;52.978;6.310;2023-03-03T20:46:09;6.40;99.90
54429;DHT22;40337;52.978;6.310;2023-03-03T20:51:42;6.40;99.90
54429;DHT22;40337;52.978;6.310;2023-03-03T20:59:35;6.50;99.90
54429;DHT22;40337;52.978;6.310;2023-03-03T21:02:14;6.40;99.90
54429;DHT22;40337;52.978;6.310;2023-03-03T21:04:43;6.40;99.90
54429;DHT22;40337;52.978;6.310;2023-03-03T21:07:22;6.40;99.90
54429;DHT22;40337;52.978;6.310;2023-03-03T21:09:48;6.40;99.90
54429;DHT22;40337;52.978;6.310;2023-03-03T21:12:29;6.50;99.90
54429;DHT22;40337;52.978;6.310;2023-03-03T21:15:05;6.50;99.90
54429;DHT22;40337;52.978;6.310;2023-03-03T21:17:31;6.50;99.90
54429;DHT22;40337;52.978;6.310;2023-03-03T21:20:29;6.50;99.90
54429;DHT22;40337;52.978;6.310;2023-03-03T21:22:57;6.50;99.90
54429;DHT22;40337;52.978;6.310;2023-03-03T21:25:47;6.50;99.90
54429;DHT22;40337;52.978;6.310;2023-03-03T21:31:04;6.50;99.90
54429;DHT22;40337;52.978;6.310;2023-03-03T21:33:51;6.50;99.90
54429;DHT22;40337;52.978;6.310;2023-03-03T21:36:43;6.40;99.90
54429;DHT22;40337;52.978;6.310;2023-03-03T21:39:30;6.50;99.90
54429;DHT22;40337;52.978;6.310;2023-03-03T21:42:01;6.50;99.90
54429;DHT22;40337;52.978;6.310;2023-03-03T21:47:10;6.50;99.90
54429;DHT22;40337;52.978;6.310;2023-03-03T21:49:40;6.50;99.90
54429;DHT22;40337;52.978;6.310;2023-03-03T21:52:06;6.50;99.90
54429;DHT22;40337;52.978;6.310;2023-03-03T21:54:32;6.50;99.90
54429;DHT22;40337;52.978;6.310;2023-03-03T21:56:57;6.50;99.90
54429;DHT22;40337;52.978;6.310;2023-03-03T21:59:23;6.50;99.90
54429;DHT22;40337;52.978;6.310;2023-03-03T22:01:48;6.50;99.90
54429;DHT22;40337;52.978;6.310;2023-03-03T22:04:14;6.50;99.90